createdAt,value
2018-10-01T00:00:42.428Z,6.10
2018-10-01T00:01:42.418Z,5.10
2018-10-01T00:02:42.413Z,5.70
2018-10-01T00:03:42.408Z,5.80
2018-10-01T00:04:42.410Z,7.20
2018-10-01T00:05:42.402Z,6.90
2018-10-01T00:06:42.397Z,5.70
2018-10-01T00:07:42.392Z,7.90
2018-10-01T00:08:42.382Z,7.30
2018-10-01T00:09:42.381Z,6.10
2018-10-01T00:10:42.422Z,6.30
2018-10-01T00:11:42.372Z,7.30
2018-10-01T00:12:42.369Z,7.70
2018-10-01T00:13:42.356Z,5.90
2018-10-01T00:14:42.352Z,6.40
2018-10-01T00:15:42.350Z,6.30
2018-10-01T00:16:42.342Z,6.70
2018-10-01T00:17:42.346Z,6.70
2018-10-01T00:18:42.340Z,6.80
2018-10-01T00:19:42.333Z,7.10
2018-10-01T00:20:42.324Z,8.10
2018-10-01T00:21:42.315Z,9.40
2018-10-01T00:22:42.311Z,8.10
2018-10-01T00:23:42.310Z,7.00
2018-10-01T00:24:42.305Z,8.70
2018-10-01T00:25:42.295Z,9.10
2018-10-01T00:26:42.291Z,6.90
2018-10-01T00:27:42.286Z,7.00
2018-10-01T00:28:42.281Z,7.60
2018-10-01T00:29:42.281Z,7.60
2018-10-01T00:30:42.276Z,7.30
2018-10-01T00:31:42.271Z,7.10
2018-10-01T00:32:42.266Z,8.70
2018-10-01T00:33:42.255Z,7.80
2018-10-01T00:34:42.250Z,5.90
2018-10-01T00:35:42.245Z,5.90
2018-10-01T00:36:42.239Z,8.00
2018-10-01T00:37:42.239Z,6.70
2018-10-01T00:38:42.234Z,8.90
2018-10-01T00:39:42.225Z,10.40
2018-10-01T00:40:42.224Z,7.90
2018-10-01T00:41:42.219Z,5.70
2018-10-01T00:42:42.213Z,4.70
2018-10-01T00:43:42.211Z,8.40
2018-10-01T00:44:42.204Z,5.70
2018-10-01T00:45:42.193Z,6.60
2018-10-01T00:46:42.189Z,5.10
2018-10-01T00:47:42.183Z,6.80
2018-10-01T00:48:42.177Z,7.30
2018-10-01T00:49:42.179Z,6.30
2018-10-01T00:50:42.173Z,7.30
2018-10-01T00:51:42.170Z,6.10
2018-10-01T00:52:42.163Z,6.20
2018-10-01T00:53:42.152Z,7.20
2018-10-01T00:54:42.149Z,9.10
2018-10-01T00:55:42.147Z,8.80
2018-10-01T00:56:42.142Z,6.50
2018-10-01T00:57:42.131Z,6.60
2018-10-01T00:58:42.127Z,6.70
2018-10-01T00:59:42.124Z,9.50
2018-10-01T01:00:42.116Z,8.80
2018-10-01T01:01:42.115Z,5.80
2018-10-01T01:02:42.110Z,9.70
2018-10-01T01:03:42.105Z,7.60
2018-10-01T01:04:42.099Z,8.80
2018-10-01T01:05:42.095Z,7.80
2018-10-01T01:06:42.085Z,6.00
2018-10-01T01:07:42.079Z,8.10
2018-10-01T01:08:42.074Z,6.90
2018-10-01T01:09:42.074Z,6.70
2018-10-01T01:10:42.069Z,6.50
2018-10-01T01:11:42.061Z,7.20
2018-10-01T01:12:42.053Z,6.70
2018-10-01T01:13:42.053Z,11.40
2018-10-01T01:14:42.051Z,7.80
2018-10-01T01:15:42.042Z,8.00
2018-10-01T01:16:42.036Z,9.00
2018-10-01T01:17:42.027Z,6.60
2018-10-01T01:18:42.022Z,7.10
2018-10-01T01:19:42.017Z,8.50
2018-10-01T01:20:42.012Z,8.10
2018-10-01T01:21:42.010Z,6.00
2018-10-01T01:22:42.006Z,8.20
2018-10-01T01:23:42.001Z,8.10
2018-10-01T01:24:41.995Z,7.30
2018-10-01T01:25:41.986Z,6.80
2018-10-01T01:26:41.980Z,7.80
2018-10-01T01:27:41.980Z,7.00
2018-10-01T01:28:41.973Z,7.50
2018-10-01T01:29:41.964Z,7.30
2018-10-01T01:30:41.959Z,7.50
2018-10-01T01:31:41.953Z,6.70
2018-10-01T01:32:41.946Z,7.90
2018-10-01T01:33:41.945Z,6.40
2018-10-01T01:34:41.940Z,6.70
2018-10-01T01:35:41.936Z,8.40
2018-10-01T01:36:41.929Z,7.30
2018-10-01T01:37:41.919Z,7.10
2018-10-01T01:38:41.915Z,6.00
2018-10-01T01:39:41.911Z,6.50
2018-10-01T01:40:41.903Z,7.90
2018-10-01T01:41:41.903Z,6.10
2018-10-01T01:42:41.898Z,6.00
2018-10-01T01:43:41.887Z,6.60
2018-10-01T01:44:41.882Z,10.80
2018-10-01T01:45:41.881Z,6.80
2018-10-01T01:46:41.877Z,9.20
2018-10-01T01:47:41.869Z,7.60
2018-10-01T01:48:41.865Z,8.80
2018-10-01T01:49:41.855Z,9.00
2018-10-01T01:50:41.849Z,6.30
2018-10-01T01:51:41.845Z,6.40
2018-10-01T01:52:41.838Z,6.60
2018-10-01T01:53:41.838Z,7.70
2018-10-01T01:54:41.833Z,8.20
2018-10-01T01:55:41.826Z,9.70
2018-10-01T01:56:41.821Z,7.50
2018-10-01T01:57:41.811Z,5.30
2018-10-01T01:58:41.805Z,8.40
2018-10-01T01:59:41.804Z,7.50
2018-10-01T02:00:41.799Z,7.90
2018-10-01T02:01:41.789Z,7.60
2018-10-01T02:02:41.783Z,7.60
2018-10-01T02:03:41.779Z,8.40
2018-10-01T02:04:41.772Z,7.70
2018-10-01T02:05:41.772Z,5.10
2018-10-01T02:06:41.767Z,7.30
2018-10-01T02:07:41.762Z,6.50
2018-10-01T02:08:41.755Z,8.40
2018-10-01T02:09:41.745Z,7.00
2018-10-01T02:10:41.739Z,7.10
2018-10-01T02:11:41.734Z,12.50
2018-10-01T02:12:41.729Z,11.30
2018-10-01T02:13:41.728Z,8.60
2018-10-01T02:14:41.722Z,7.90
2018-10-01T02:15:41.712Z,6.20
2018-10-01T02:16:41.705Z,6.70
2018-10-01T02:17:41.705Z,11.40
2018-10-01T02:18:41.700Z,6.10
2018-10-01T02:19:41.694Z,8.20
2018-10-01T02:20:41.688Z,12.20
2018-10-01T02:21:41.679Z,7.00
2018-10-01T02:22:41.673Z,7.50
2018-10-01T02:23:41.667Z,7.70
2018-10-01T02:24:41.661Z,9.60
2018-10-01T02:25:41.661Z,8.50
2018-10-01T02:26:41.656Z,7.50
2018-10-01T02:27:41.650Z,8.40
2018-10-01T02:28:41.643Z,8.40
2018-10-01T02:29:41.633Z,11.10
2018-10-01T02:30:41.628Z,7.20
2018-10-01T02:31:41.627Z,9.50
2018-10-01T02:32:41.620Z,8.60
2018-10-01T02:33:41.611Z,8.90
2018-10-01T02:34:41.612Z,6.60
2018-10-01T02:35:41.602Z,8.10
2018-10-01T02:36:41.594Z,9.70
2018-10-01T02:37:41.595Z,9.50
2018-10-01T02:38:41.590Z,7.80
2018-10-01T02:39:41.584Z,8.30
2018-10-01T02:40:41.578Z,8.30
2018-10-01T02:41:41.568Z,9.70
2018-10-01T02:42:41.561Z,7.20
2018-10-01T02:43:41.557Z,7.40
2018-10-01T02:44:41.551Z,8.60
2018-10-01T02:45:41.550Z,6.90
2018-10-01T02:46:41.544Z,10.50
2018-10-01T02:47:41.599Z,7.40
2018-10-01T02:48:41.529Z,7.00
2018-10-01T02:49:41.525Z,10.80
2018-10-01T02:50:41.521Z,7.60
2018-10-01T02:51:41.516Z,7.50
2018-10-01T02:52:41.508Z,11.20
2018-10-01T02:53:41.499Z,7.30
2018-10-01T02:54:41.493Z,9.90
2018-10-01T02:55:41.488Z,10.30
2018-10-01T02:56:41.482Z,8.00
2018-10-01T02:57:41.479Z,8.90
2018-10-01T02:58:41.475Z,9.00
2018-10-01T02:59:41.468Z,8.80
2018-10-01T03:00:41.461Z,6.30
2018-10-01T03:01:41.461Z,8.40
2018-10-01T03:02:41.446Z,8.30
2018-10-01T03:03:41.448Z,9.60
2018-10-01T03:04:41.439Z,8.00
2018-10-01T03:05:41.429Z,6.60
2018-10-01T03:06:41.422Z,9.30
2018-10-01T03:07:41.416Z,10.00
2018-10-01T03:08:41.410Z,8.70
2018-10-01T03:09:41.410Z,9.10
2018-10-01T03:10:41.410Z,8.90
2018-10-01T03:11:41.398Z,8.60
2018-10-01T03:12:41.392Z,7.40
2018-10-01T03:13:41.381Z,8.60
2018-10-01T03:14:41.375Z,9.80
2018-10-01T03:15:41.370Z,9.50
2018-10-01T03:16:41.361Z,8.40
2018-10-01T03:17:41.360Z,7.50
2018-10-01T03:18:41.356Z,10.10
2018-10-01T03:19:41.381Z,8.80
2018-10-01T03:20:41.338Z,8.70
2018-10-01T03:21:41.338Z,7.60
2018-10-01T03:22:41.331Z,7.60
2018-10-01T03:23:41.326Z,7.60
2018-10-01T03:24:41.360Z,7.60
2018-10-01T03:25:41.314Z,9.20
2018-10-01T03:26:41.305Z,7.90
2018-10-01T03:27:41.298Z,11.60
2018-10-01T03:28:41.291Z,8.00
2018-10-01T03:29:41.291Z,8.90
2018-10-01T03:30:41.285Z,8.10
2018-10-01T03:31:41.279Z,7.00
2018-10-01T03:32:41.272Z,8.00
2018-10-01T03:33:41.263Z,8.40
2018-10-01T03:34:41.256Z,8.20
2018-10-01T03:35:41.255Z,8.40
2018-10-01T03:36:41.257Z,7.00
2018-10-01T03:37:41.238Z,11.10
2018-10-01T03:38:41.232Z,8.90
2018-10-01T03:39:41.228Z,7.80
2018-10-01T03:40:41.220Z,8.60
2018-10-01T03:41:41.222Z,9.10
2018-10-01T03:42:41.215Z,7.60
2018-10-01T03:43:41.209Z,6.30
2018-10-01T03:44:41.206Z,6.60
2018-10-01T03:45:41.192Z,7.90
2018-10-01T03:46:41.187Z,9.10
2018-10-01T03:47:41.181Z,7.90
2018-10-01T03:48:41.173Z,8.70
2018-10-01T03:49:41.173Z,10.70
2018-10-01T03:50:41.168Z,10.30
2018-10-01T03:51:41.158Z,8.70
2018-10-01T03:52:41.151Z,7.10
2018-10-01T03:53:41.152Z,8.20
2018-10-01T03:54:41.144Z,8.30
2018-10-01T03:55:41.139Z,8.80
2018-10-01T03:56:41.132Z,8.50
2018-10-01T03:57:41.120Z,6.30
2018-10-01T03:58:41.116Z,7.60
2018-10-01T03:59:41.118Z,5.80
2018-10-01T04:00:41.104Z,9.70
2018-10-01T04:01:41.104Z,7.50
2018-10-01T04:02:41.097Z,7.70
2018-10-01T04:03:41.093Z,6.10
2018-10-01T04:04:41.090Z,8.40
2018-10-01T04:05:41.074Z,8.10
2018-10-01T04:06:41.071Z,6.70
2018-10-01T04:07:41.068Z,7.20
2018-10-01T04:08:41.112Z,7.20
2018-10-01T04:09:41.050Z,6.40
2018-10-01T04:10:41.044Z,6.80
2018-10-01T04:11:41.039Z,8.20
2018-10-01T04:12:41.032Z,7.80
2018-10-01T04:13:41.032Z,8.40
2018-10-01T04:14:41.029Z,7.10
2018-10-01T04:15:41.019Z,8.10
2018-10-01T04:16:41.016Z,10.70
2018-10-01T04:17:41.003Z,10.50
2018-10-01T04:18:40.997Z,6.70
2018-10-01T04:19:40.992Z,7.60
2018-10-01T04:20:40.986Z,8.40
2018-10-01T04:21:40.985Z,9.10
2018-10-01T04:22:41.040Z,6.10
2018-10-01T04:23:40.968Z,8.50
2018-10-01T04:24:40.961Z,10.20
2018-10-01T04:25:40.960Z,8.90
2018-10-01T04:26:40.964Z,6.40
2018-10-01T04:27:40.948Z,7.10
2018-10-01T04:28:40.941Z,6.20
2018-10-01T04:29:40.932Z,8.30
2018-10-01T04:30:40.926Z,7.80
2018-10-01T04:31:40.920Z,7.60
2018-10-01T04:32:40.914Z,8.20
2018-10-01T04:33:40.913Z,7.60
2018-10-01T04:34:40.906Z,9.60
2018-10-01T04:35:40.952Z,9.80
2018-10-01T04:36:40.896Z,8.10
2018-10-01T04:37:40.884Z,5.80
2018-10-01T04:38:40.879Z,7.80
2018-10-01T04:39:40.879Z,6.50
2018-10-01T04:40:40.919Z,7.30
2018-10-01T04:41:40.862Z,8.30
2018-10-01T04:42:40.857Z,13.10
2018-10-01T04:43:40.850Z,8.50
2018-10-01T04:44:40.844Z,7.50
2018-10-01T04:45:40.842Z,8.10
2018-10-01T04:46:40.866Z,7.20
2018-10-01T04:47:40.829Z,9.10
2018-10-01T04:48:40.825Z,9.30
2018-10-01T04:49:40.815Z,7.30
2018-10-01T04:50:40.809Z,7.20
2018-10-01T04:51:40.807Z,7.20
2018-10-01T04:52:40.796Z,9.70
2018-10-01T04:53:40.796Z,7.40
2018-10-01T04:54:40.790Z,8.50
2018-10-01T04:55:40.779Z,8.10
2018-10-01T04:56:40.774Z,11.10
2018-10-01T04:57:40.773Z,8.50
2018-10-01T04:58:40.888Z,10.30
2018-10-01T04:59:40.768Z,10.10
2018-10-01T05:00:40.753Z,7.80
2018-10-01T05:01:40.743Z,9.40
2018-10-01T05:02:40.739Z,10.10
2018-10-01T05:03:40.733Z,7.10
2018-10-01T05:04:40.726Z,7.40
2018-10-01T05:05:40.726Z,7.30
2018-10-01T05:06:40.719Z,9.10
2018-10-01T05:07:40.713Z,8.30
2018-10-01T05:08:40.707Z,7.60
2018-10-01T05:09:40.700Z,7.20
2018-10-01T05:10:40.691Z,5.80
2018-10-01T05:11:40.691Z,6.70
2018-10-01T05:12:40.683Z,6.70
2018-10-01T05:13:40.675Z,7.80
2018-10-01T05:14:40.694Z,7.10
2018-10-01T05:15:40.662Z,6.90
2018-10-01T05:16:40.655Z,6.50
2018-10-01T05:17:40.656Z,5.60
2018-10-01T05:18:40.650Z,6.60
2018-10-01T05:19:40.644Z,6.40
2018-10-01T05:20:40.639Z,6.30
2018-10-01T05:21:40.628Z,6.60
2018-10-01T05:22:40.621Z,6.80
2018-10-01T05:23:40.615Z,7.50
2018-10-01T05:24:40.610Z,8.40
2018-10-01T05:25:40.607Z,6.30
2018-10-01T05:26:40.602Z,7.20
2018-10-01T05:27:40.591Z,7.90
2018-10-01T05:28:40.585Z,7.80
2018-10-01T05:29:40.584Z,8.80
2018-10-01T05:30:40.579Z,6.70
2018-10-01T05:31:40.573Z,8.40
2018-10-01T05:32:40.567Z,7.60
2018-10-01T05:33:40.555Z,8.60
2018-10-01T05:34:40.549Z,7.80
2018-10-01T05:35:40.544Z,7.10
2018-10-01T05:36:40.538Z,8.70
2018-10-01T05:37:40.584Z,5.80
2018-10-01T05:38:40.531Z,9.00
2018-10-01T05:39:40.523Z,7.70
2018-10-01T05:40:40.517Z,6.90
2018-10-01T05:41:40.507Z,7.10
2018-10-01T05:42:40.501Z,6.60
2018-10-01T05:43:40.500Z,4.90
2018-10-01T05:44:40.492Z,8.30
2018-10-01T05:45:40.482Z,7.60
2018-10-01T05:46:40.476Z,6.20
2018-10-01T05:47:40.472Z,5.60
2018-10-01T05:48:40.464Z,5.90
2018-10-01T05:49:40.464Z,7.30
2018-10-01T05:50:40.457Z,6.70
2018-10-01T05:51:40.452Z,6.10
2018-10-01T05:52:40.444Z,5.80
2018-10-01T05:53:40.460Z,5.00
2018-10-01T05:54:40.429Z,6.10
2018-10-01T05:55:40.422Z,7.30
2018-10-01T05:56:40.415Z,8.20
2018-10-01T05:57:40.488Z,7.20
2018-10-01T05:58:40.408Z,6.10
2018-10-01T05:59:40.398Z,7.10
2018-10-01T06:00:40.391Z,6.00
2018-10-01T06:01:40.390Z,7.70
2018-10-01T06:02:40.384Z,5.20
2018-10-01T06:03:40.379Z,6.60
2018-10-01T06:04:40.388Z,8.10
2018-10-01T06:05:40.362Z,8.30
2018-10-01T06:06:40.357Z,7.50
2018-10-01T06:07:40.348Z,6.30
2018-10-01T06:08:40.342Z,4.60
2018-10-01T06:09:40.342Z,7.70
2018-10-01T06:10:40.336Z,6.80
2018-10-01T06:11:40.335Z,5.00
2018-10-01T06:12:40.326Z,7.40
2018-10-01T06:13:40.312Z,6.50
2018-10-01T06:14:40.306Z,5.80
2018-10-01T06:15:40.306Z,4.60
2018-10-01T06:16:40.299Z,8.60
2018-10-01T06:17:40.289Z,5.10
2018-10-01T06:18:40.283Z,4.90
2018-10-01T06:19:40.276Z,5.20
2018-10-01T06:20:40.291Z,6.10
2018-10-01T06:21:40.269Z,4.80
2018-10-01T06:22:40.264Z,5.00
2018-10-01T06:23:40.257Z,7.80
2018-10-01T06:24:40.253Z,7.00
2018-10-01T06:25:40.240Z,4.20
2018-10-01T06:26:40.235Z,4.80
2018-10-01T06:27:40.230Z,6.90
2018-10-01T06:28:40.224Z,7.20
2018-10-01T06:29:40.221Z,6.20
2018-10-01T06:30:40.217Z,9.10
2018-10-01T06:31:40.206Z,6.00
2018-10-01T06:32:40.200Z,4.20
2018-10-01T06:33:40.198Z,8.00
2018-10-01T06:34:40.197Z,4.30
2018-10-01T06:35:40.186Z,3.90
2018-10-01T06:36:40.179Z,6.50
2018-10-01T06:37:40.170Z,3.30
2018-10-01T06:38:40.168Z,4.40
2018-10-01T06:39:40.159Z,4.60
2018-10-01T06:40:40.152Z,6.00
2018-10-01T06:41:40.240Z,5.30
2018-10-01T06:42:40.146Z,7.20
2018-10-01T06:43:40.142Z,5.50
2018-10-01T06:44:40.139Z,5.40
2018-10-01T06:45:40.126Z,5.80
2018-10-01T06:46:40.122Z,5.80
2018-10-01T06:47:40.122Z,4.30
2018-10-01T06:48:40.116Z,4.20
2018-10-01T06:49:40.108Z,5.10
2018-10-01T06:50:40.108Z,3.30
2018-10-01T06:51:40.103Z,4.60
2018-10-01T06:52:40.097Z,5.00
2018-10-01T06:53:40.099Z,4.90
2018-10-01T06:54:40.097Z,5.00
2018-10-01T06:55:40.096Z,3.60
2018-10-01T06:56:40.094Z,3.60
2018-10-01T06:57:40.088Z,4.30
2018-10-01T06:58:40.095Z,3.60
2018-10-01T06:59:40.098Z,6.40
2018-10-01T07:00:40.084Z,3.40
2018-10-01T07:01:40.090Z,5.30
2018-10-01T07:02:40.093Z,2.80
2018-10-01T07:03:40.086Z,3.30
2018-10-01T07:04:40.085Z,5.30
2018-10-01T07:05:40.122Z,4.10
2018-10-01T07:06:40.092Z,4.50
2018-10-01T07:07:40.102Z,3.80
2018-10-01T07:08:40.095Z,4.20
2018-10-01T07:09:40.090Z,4.80
2018-10-01T07:10:40.092Z,3.10
2018-10-01T07:11:40.364Z,4.40
2018-10-01T07:12:40.096Z,3.50
2018-10-01T07:13:40.104Z,3.40
2018-10-01T07:14:40.106Z,4.20
2018-10-01T07:15:40.108Z,3.50
2018-10-01T07:16:40.111Z,5.00
2018-10-01T07:17:40.109Z,4.20
2018-10-01T07:18:40.114Z,3.20
2018-10-01T07:19:40.121Z,3.10
2018-10-01T07:20:40.124Z,3.80
2018-10-01T07:21:40.124Z,4.40
2018-10-01T07:22:40.217Z,2.60
2018-10-01T07:23:40.132Z,3.30
2018-10-01T07:24:40.135Z,2.90
2018-10-01T07:25:40.144Z,2.80
2018-10-01T07:26:40.155Z,3.10
2018-10-01T07:27:40.154Z,4.20
2018-10-01T07:28:40.158Z,3.80
2018-10-01T07:29:40.157Z,3.60
2018-10-01T07:30:40.161Z,2.70
2018-10-01T07:31:40.166Z,5.30
2018-10-01T07:32:40.171Z,3.30
2018-10-01T07:33:40.178Z,3.40
2018-10-01T07:34:40.184Z,3.00
2018-10-01T07:35:40.185Z,4.00
2018-10-01T07:36:40.188Z,3.00
2018-10-01T07:37:40.199Z,3.70
2018-10-01T07:38:40.204Z,2.80
2018-10-01T07:39:40.210Z,4.00
2018-10-01T07:40:40.213Z,3.40
2018-10-01T07:41:40.214Z,3.00
2018-10-01T07:42:40.220Z,4.80
2018-10-01T07:43:40.226Z,3.00
2018-10-01T07:44:40.236Z,1.80
2018-10-01T07:45:40.243Z,1.70
2018-10-01T07:46:40.260Z,1.40
2018-10-01T07:47:40.252Z,3.00
2018-10-01T07:48:40.256Z,3.40
2018-10-01T07:49:40.269Z,3.20
2018-10-01T07:50:40.364Z,2.70
2018-10-01T07:51:40.272Z,2.70
2018-10-01T07:52:40.292Z,2.10
2018-10-01T07:53:40.286Z,3.40
2018-10-01T07:54:40.285Z,2.00
2018-10-01T07:55:40.287Z,2.30
2018-10-01T07:56:40.290Z,1.70
2018-10-01T07:57:40.302Z,2.60
2018-10-01T07:58:40.304Z,3.50
2018-10-01T07:59:40.466Z,3.20
2018-10-01T08:00:40.316Z,2.50
2018-10-01T08:01:40.314Z,2.00
2018-10-01T08:02:40.404Z,4.30
2018-10-01T08:03:40.324Z,2.20
2018-10-01T08:04:40.329Z,3.40
2018-10-01T08:05:40.338Z,2.80
2018-10-01T08:06:40.347Z,2.30
2018-10-01T08:07:40.344Z,3.30
2018-10-01T08:08:40.433Z,3.10
2018-10-01T08:09:40.361Z,2.80
2018-10-01T08:10:40.416Z,2.70
2018-10-01T08:11:40.379Z,1.80
2018-10-01T08:12:40.379Z,2.60
2018-10-01T08:13:40.385Z,2.80
2018-10-01T08:14:40.455Z,2.90
2018-10-01T08:15:40.402Z,2.30
2018-10-01T08:16:40.403Z,2.10
2018-10-01T08:17:40.412Z,3.60
2018-10-01T08:18:40.419Z,3.30
2018-10-01T08:19:40.427Z,2.00
2018-10-01T08:20:40.440Z,2.60
2018-10-01T08:21:40.436Z,3.90
2018-10-01T08:22:40.446Z,2.80
2018-10-01T08:23:40.550Z,1.80
2018-10-01T08:24:40.465Z,2.80
2018-10-01T08:25:40.471Z,3.10
2018-10-01T08:26:40.601Z,2.90
2018-10-01T08:27:40.486Z,3.30
2018-10-01T08:28:40.492Z,2.50
2018-10-01T08:29:40.597Z,2.90
2018-10-01T08:30:40.515Z,3.10
2018-10-01T08:31:40.524Z,3.40
2018-10-01T08:32:40.546Z,3.10
2018-10-01T08:33:40.535Z,3.20
2018-10-01T08:34:40.545Z,2.60
2018-10-01T08:35:40.556Z,2.20
2018-10-01T08:36:40.563Z,2.30
2018-10-01T08:37:40.577Z,3.20
2018-10-01T08:38:40.726Z,2.70
2018-10-01T08:39:40.590Z,3.80
2018-10-01T08:40:40.597Z,2.50
2018-10-01T08:41:40.610Z,4.30
2018-10-01T08:42:40.619Z,4.10
2018-10-01T08:43:40.626Z,3.60
2018-10-01T08:44:40.635Z,2.20
2018-10-01T08:45:40.637Z,2.20
2018-10-01T08:46:40.646Z,4.10
2018-10-01T08:47:40.662Z,2.60
2018-10-01T08:48:40.660Z,2.90
2018-10-01T08:49:40.672Z,2.60
2018-10-01T08:50:40.680Z,2.50
2018-10-01T08:51:40.694Z,2.20
2018-10-01T08:52:40.694Z,3.00
2018-10-01T08:53:40.695Z,1.50
2018-10-01T08:54:40.703Z,4.60
2018-10-01T08:55:40.713Z,2.80
2018-10-01T08:56:40.718Z,2.30
2018-10-01T08:57:40.721Z,1.50
2018-10-01T08:58:40.726Z,2.10
2018-10-01T08:59:40.731Z,1.90
2018-10-01T09:00:40.735Z,1.80
2018-10-01T09:01:40.745Z,3.00
2018-10-01T09:02:40.834Z,5.50
2018-10-01T09:03:40.756Z,3.20
2018-10-01T09:04:40.762Z,2.30
2018-10-01T09:05:40.761Z,1.80
2018-10-01T09:06:40.811Z,3.30
2018-10-01T09:07:40.770Z,2.50
2018-10-01T09:08:40.775Z,3.80
2018-10-01T09:09:40.782Z,2.80
2018-10-01T09:10:40.787Z,1.80
2018-10-01T09:11:40.786Z,2.80
2018-10-01T09:12:40.791Z,2.40
2018-10-01T09:13:40.803Z,1.50
2018-10-01T09:14:40.881Z,1.40
2018-10-01T09:15:40.812Z,2.80
2018-10-01T09:16:40.813Z,1.80
2018-10-01T09:17:40.815Z,3.00
2018-10-01T09:18:40.823Z,2.90
2018-10-01T09:19:40.828Z,2.00
2018-10-01T09:20:40.854Z,4.70
2018-10-01T09:21:40.895Z,1.80
2018-10-01T09:22:40.853Z,2.50
2018-10-01T09:23:40.859Z,3.90
2018-10-01T09:24:40.865Z,2.70
2018-10-01T09:25:40.869Z,1.60
2018-10-01T09:26:40.968Z,2.00
2018-10-01T09:27:40.890Z,2.10
2018-10-01T09:28:40.899Z,1.80
2018-10-01T09:29:40.905Z,4.40
2018-10-01T09:30:40.912Z,2.70
2018-10-01T09:31:40.922Z,3.40
2018-10-01T09:32:40.990Z,3.90
2018-10-01T09:33:40.946Z,3.10
2018-10-01T09:34:40.955Z,2.60
2018-10-01T09:35:40.965Z,3.10
2018-10-01T09:36:40.973Z,4.10
2018-10-01T09:37:40.979Z,3.70
2018-10-01T09:38:41.030Z,2.60
2018-10-01T09:39:40.996Z,3.90
2018-10-01T09:40:41.101Z,3.30
2018-10-01T09:41:41.016Z,4.70
2018-10-01T09:42:41.026Z,2.20
2018-10-01T09:43:41.028Z,3.60
2018-10-01T09:44:41.035Z,2.60
2018-10-01T09:45:41.046Z,3.90
2018-10-01T09:46:41.054Z,2.90
2018-10-01T09:47:41.065Z,2.80
2018-10-01T09:48:41.067Z,2.70
2018-10-01T09:49:41.067Z,2.50
2018-10-01T09:50:41.077Z,1.70
2018-10-01T09:51:41.082Z,4.40
2018-10-01T09:52:41.088Z,3.60
2018-10-01T09:53:41.121Z,3.20
2018-10-01T09:54:41.106Z,2.50
2018-10-01T09:55:41.111Z,2.50
2018-10-01T09:56:41.228Z,3.80
2018-10-01T09:57:41.118Z,2.10
2018-10-01T09:58:41.236Z,2.90
2018-10-01T09:59:41.136Z,1.80
2018-10-01T10:00:41.341Z,3.60
2018-10-01T10:01:41.142Z,3.40
2018-10-01T10:02:41.146Z,2.40
2018-10-01T10:03:41.152Z,2.10
2018-10-01T10:04:41.166Z,2.80
2018-10-01T10:05:41.169Z,4.10
2018-10-01T10:06:41.171Z,3.40
2018-10-01T10:07:41.176Z,2.00
2018-10-01T10:08:41.293Z,3.30
2018-10-01T10:09:41.184Z,5.70
2018-10-01T10:10:41.184Z,4.00
2018-10-01T10:11:41.190Z,3.60
2018-10-01T10:12:41.194Z,2.30
2018-10-01T10:13:41.201Z,3.90
2018-10-01T10:14:41.332Z,3.50
2018-10-01T10:15:41.206Z,2.10
2018-10-01T10:16:41.334Z,4.70
2018-10-01T10:17:41.215Z,2.60
2018-10-01T10:18:41.219Z,2.30
2018-10-01T10:19:41.221Z,2.50
2018-10-01T10:20:41.222Z,1.60
2018-10-01T10:21:41.221Z,2.50
2018-10-01T10:22:41.220Z,3.80
2018-10-01T10:23:41.222Z,3.40
2018-10-01T10:24:41.221Z,4.30
2018-10-01T10:25:41.226Z,2.10
2018-10-01T10:26:41.229Z,1.80
2018-10-01T10:27:41.227Z,3.20
2018-10-01T10:28:41.227Z,2.20
2018-10-01T10:29:41.222Z,2.10
2018-10-01T10:30:41.220Z,2.70
2018-10-01T10:31:41.231Z,2.10
2018-10-01T10:32:41.224Z,1.90
2018-10-01T10:33:41.219Z,2.00
2018-10-01T10:34:41.219Z,4.60
2018-10-01T10:35:41.220Z,3.00
2018-10-01T10:36:41.217Z,3.10
2018-10-01T10:37:41.221Z,3.20
2018-10-01T10:38:41.222Z,3.70
2018-10-01T10:39:41.298Z,3.80
2018-10-01T10:40:41.224Z,5.00
2018-10-01T10:41:41.250Z,3.10
2018-10-01T10:42:41.225Z,2.20
2018-10-01T10:43:41.245Z,2.60
2018-10-01T10:44:41.232Z,3.10
2018-10-01T10:45:41.235Z,4.00
2018-10-01T10:46:41.239Z,3.60
2018-10-01T10:47:41.238Z,3.30
2018-10-01T10:48:41.245Z,3.20
2018-10-01T10:49:41.251Z,2.50
2018-10-01T10:50:41.318Z,3.90
2018-10-01T10:51:41.258Z,3.80
2018-10-01T10:52:41.262Z,2.60
2018-10-01T10:53:41.262Z,2.40
2018-10-01T10:54:41.265Z,3.90
2018-10-01T10:55:41.271Z,5.00
2018-10-01T10:56:41.373Z,3.10
2018-10-01T10:57:41.281Z,3.80
2018-10-01T10:58:41.285Z,2.70
2018-10-01T10:59:41.293Z,2.80
2018-10-01T11:00:41.303Z,3.00
2018-10-01T11:01:41.292Z,2.20
2018-10-01T11:02:41.297Z,4.60
2018-10-01T11:03:41.307Z,3.10
2018-10-01T11:04:41.310Z,1.40
2018-10-01T11:05:41.309Z,2.40
2018-10-01T11:06:41.314Z,2.60
2018-10-01T11:07:41.319Z,1.80
2018-10-01T11:08:41.351Z,1.90
2018-10-01T11:09:41.331Z,2.10
2018-10-01T11:10:41.336Z,2.60
2018-10-01T11:11:41.339Z,1.90
2018-10-01T11:12:41.343Z,2.90
2018-10-01T11:13:41.343Z,1.50
2018-10-01T11:14:41.463Z,2.10
2018-10-01T11:15:41.353Z,1.50
2018-10-01T11:16:41.357Z,1.60
2018-10-01T11:17:41.367Z,1.80
2018-10-01T11:18:41.548Z,3.40
2018-10-01T11:19:41.379Z,1.40
2018-10-01T11:20:41.430Z,2.40
2018-10-01T11:21:41.523Z,1.20
2018-10-01T11:22:41.392Z,1.20
2018-10-01T11:23:41.394Z,1.60
2018-10-01T11:24:41.397Z,2.00
2018-10-01T11:25:41.396Z,3.40
2018-10-01T11:26:41.450Z,4.50
2018-10-01T11:27:41.468Z,4.60
2018-10-01T11:28:41.455Z,7.20
2018-10-01T11:29:41.433Z,6.00
2018-10-01T11:30:41.419Z,5.50
2018-10-01T11:31:41.496Z,5.00
2018-10-01T11:32:41.425Z,5.80
2018-10-01T11:33:41.488Z,6.10
2018-10-01T11:34:41.432Z,3.70
2018-10-01T11:35:41.438Z,3.30
2018-10-01T11:36:41.431Z,3.20
2018-10-01T11:37:41.428Z,2.40
2018-10-01T11:38:41.427Z,5.10
2018-10-01T11:39:41.479Z,2.60
2018-10-01T11:40:41.427Z,1.80
2018-10-01T11:41:41.432Z,5.00
2018-10-01T11:42:41.432Z,2.60
2018-10-01T11:43:41.431Z,2.80
2018-10-01T11:44:41.430Z,3.30
2018-10-01T11:45:41.490Z,1.70
2018-10-01T11:46:41.424Z,1.60
2018-10-01T11:47:41.422Z,0.80
2018-10-01T11:48:41.424Z,1.60
2018-10-01T11:49:41.426Z,2.90
2018-10-01T11:50:41.425Z,1.50
2018-10-01T11:51:41.442Z,2.30
2018-10-01T11:52:41.416Z,0.90
2018-10-01T11:53:41.419Z,1.90
2018-10-01T11:54:41.418Z,1.10
2018-10-01T11:55:41.425Z,1.50
2018-10-01T11:56:41.414Z,1.30
2018-10-01T11:57:41.453Z,2.10
2018-10-01T11:58:41.407Z,2.90
2018-10-01T11:59:41.405Z,2.00
2018-10-01T12:00:41.403Z,2.10
2018-10-01T12:01:41.405Z,1.50
2018-10-01T12:02:41.405Z,1.60
2018-10-01T12:03:41.492Z,1.90
2018-10-01T12:04:41.402Z,2.30
2018-10-01T12:05:41.400Z,1.50
2018-10-01T12:06:41.394Z,2.50
2018-10-01T12:07:41.397Z,2.60
2018-10-01T12:08:41.395Z,3.00
2018-10-01T12:09:41.461Z,5.20
2018-10-01T12:10:41.390Z,4.40
2018-10-01T12:11:41.389Z,2.10
2018-10-01T12:12:41.385Z,3.90
2018-10-01T12:13:41.389Z,3.00
2018-10-01T12:14:41.388Z,3.50
2018-10-01T12:15:41.490Z,4.40
2018-10-01T12:16:41.387Z,3.90
2018-10-01T12:17:41.381Z,7.20
2018-10-01T12:18:41.379Z,3.40
2018-10-01T12:19:41.379Z,5.00
2018-10-01T12:20:41.376Z,6.70
2018-10-01T12:21:41.552Z,4.10
2018-10-01T12:22:41.382Z,5.80
2018-10-01T12:23:41.375Z,7.30
2018-10-01T12:24:41.372Z,6.00
2018-10-01T12:25:41.376Z,4.80
2018-10-01T12:26:41.377Z,4.10
2018-10-01T12:27:41.394Z,4.20
2018-10-01T12:28:41.373Z,5.50
2018-10-01T12:29:41.368Z,4.10
2018-10-01T12:30:41.367Z,3.90
2018-10-01T12:31:41.392Z,3.60
2018-10-01T12:32:41.365Z,4.10
2018-10-01T12:33:41.400Z,2.80
2018-10-01T12:34:41.368Z,2.90
2018-10-01T12:35:41.366Z,4.90
2018-10-01T12:36:41.365Z,3.50
2018-10-01T12:37:41.363Z,2.40
2018-10-01T12:38:41.359Z,4.50
2018-10-01T12:39:41.438Z,3.60
2018-10-01T12:40:41.361Z,5.00
2018-10-01T12:41:41.354Z,5.50
2018-10-01T12:42:41.358Z,4.20
2018-10-01T12:43:41.353Z,2.60
2018-10-01T12:44:41.353Z,5.50
2018-10-01T12:45:41.380Z,3.30
2018-10-01T12:46:41.355Z,5.00
2018-10-01T12:47:41.356Z,3.30
2018-10-01T12:48:41.353Z,4.90
2018-10-01T12:49:41.345Z,3.70
2018-10-01T12:50:41.345Z,3.90
2018-10-01T12:51:41.411Z,5.10
2018-10-01T12:52:41.342Z,4.80
2018-10-01T12:53:41.344Z,5.40
2018-10-01T12:54:41.342Z,6.30
2018-10-01T12:55:41.336Z,5.40
2018-10-01T12:56:41.337Z,5.20
2018-10-01T12:57:41.449Z,5.60
2018-10-01T12:58:41.335Z,4.30
2018-10-01T12:59:41.500Z,4.60
2018-10-01T13:00:41.333Z,5.20
2018-10-01T13:01:41.323Z,4.50
2018-10-01T13:02:41.323Z,5.30
2018-10-01T13:03:41.320Z,3.70
2018-10-01T13:04:41.317Z,3.80
2018-10-01T13:05:41.319Z,4.50
2018-10-01T13:06:41.328Z,5.00
2018-10-01T13:07:41.315Z,6.90
2018-10-01T13:08:41.310Z,4.10
2018-10-01T13:09:41.305Z,2.80
2018-10-01T13:10:41.303Z,3.70
2018-10-01T13:11:41.314Z,6.60
2018-10-01T13:12:41.355Z,4.80
2018-10-01T13:13:41.296Z,4.30
2018-10-01T13:14:41.293Z,3.30
2018-10-01T13:15:41.291Z,3.70
2018-10-01T13:16:41.290Z,3.40
2018-10-01T13:17:41.292Z,4.60